Time;durP1;ratioP1;P1;durP2;ratioP2;P2;SDS_P1;SDS_P2;PMS_P1;PMS_P2;Temp;Humidity;BMP_temperature;BMP_pressure;BME280_temperature;BME280_humidity;BME280_pressure;Samples;Min_cycle;Max_cycle;Signal;HPM_P1;HPM_P2
2022/10/20 00:01:59;;;;;;;6.53;2.23;;;8.80;99.90;;;;;;5070053;28;20490;-76
2022/10/20 00:04:25;;;;;;;10.70;2.50;;;8.70;99.90;;;;;;5044239;28;20430;-75
2022/10/20 00:06:51;;;;;;;6.63;2.37;;;8.70;99.90;;;;;;5036627;28;20063;-76
2022/10/20 00:09:17;;;;;;;6.85;2.50;;;8.70;99.90;;;;;;5074468;28;20119;-76
2022/10/20 00:11:44;;;;;;;4.13;2.20;;;8.70;99.90;;;;;;5067443;28;20066;-76
2022/10/20 00:14:10;;;;;;;5.30;2.33;;;8.60;99.90;;;;;;5058923;28;20581;-76
2022/10/20 00:16:38;;;;;;;5.17;2.30;;;8.60;99.90;;;;;;5044018;28;20255;-75
2022/10/20 00:19:04;;;;;;;3.60;2.13;;;8.60;99.90;;;;;;5065913;28;20265;-75
2022/10/20 00:21:33;;;;;;;5.43;2.42;;;8.60;99.90;;;;;;5047721;28;20032;-76
2022/10/20 00:24:01;;;;;;;4.20;2.38;;;8.60;99.90;;;;;;5068569;28;20055;-75
2022/10/20 00:26:28;;;;;;;3.47;2.10;;;8.50;99.90;;;;;;5054728;28;20518;-76
2022/10/20 00:28:55;;;;;;;7.70;2.78;;;8.50;99.90;;;;;;5048245;28;20037;-76
2022/10/20 00:31:22;;;;;;;5.50;2.35;;;8.50;99.90;;;;;;5037273;28;20048;-76
2022/10/20 00:33:51;;;;;;;6.95;2.08;;;8.50;99.90;;;;;;5031925;28;20056;-76
2022/10/20 00:36:19;;;;;;;5.95;2.33;;;8.40;99.90;;;;;;5028369;28;20037;-77
2022/10/20 00:38:45;;;;;;;4.53;2.40;;;8.40;99.90;;;;;;5059570;28;20070;-76
2022/10/20 00:41:13;;;;;;;5.13;2.08;;;8.40;99.90;;;;;;5031072;28;20565;-76
2022/10/20 00:43:55;;;;;;;6.85;2.33;;;8.40;99.90;;;;;;5032847;28;20045;-75
2022/10/20 00:46:41;;;;;;;6.60;2.40;;;8.40;99.90;;;;;;5047377;28;20048;-76
2022/10/20 00:49:22;;;;;;;5.43;2.80;;;8.30;99.90;;;;;;5038286;28;20051;-76
2022/10/20 00:51:49;;;;;;;8.18;2.58;;;8.30;99.90;;;;;;5061542;28;20052;-76
2022/10/20 00:54:19;;;;;;;6.28;2.42;;;8.30;99.90;;;;;;5035145;28;20044;-76
2022/10/20 00:56:47;;;;;;;3.88;2.25;;;8.30;99.90;;;;;;5061845;28;20482;-75
2022/10/20 00:59:16;;;;;;;4.50;2.70;;;8.20;99.90;;;;;;5062910;28;20044;-75
2022/10/20 01:01:43;;;;;;;5.43;2.20;;;8.20;99.90;;;;;;5051014;28;20506;-77
2022/10/20 01:04:09;;;;;;;6.70;2.13;;;8.20;99.90;;;;;;5049047;28;20101;-77
2022/10/20 01:06:35;;;;;;;13.20;2.67;;;8.20;99.90;;;;;;5040916;28;20044;-77
2022/10/20 01:09:02;;;;;;;4.35;2.60;;;8.20;99.90;;;;;;5058277;28;20047;-77
2022/10/20 01:11:45;;;;;;;4.82;2.40;;;8.20;99.90;;;;;;5056271;28;20119;-78
2022/10/20 01:14:45;;;;;;;6.00;2.35;;;8.10;99.90;;;;;;5039619;28;20502;-75
2022/10/20 01:17:42;;;;;;;4.43;2.42;;;8.10;99.90;;;;;;5042105;28;20044;-75
2022/10/20 01:20:19;;;;;;;3.50;2.05;;;8.10;99.90;;;;;;5040475;28;20221;-75
2022/10/20 01:23:04;;;;;;;7.28;2.35;;;8.10;99.90;;;;;;5070384;28;20037;-75
2022/10/20 01:26:00;;;;;;;4.45;2.28;;;8.10;99.90;;;;;;5060277;28;20038;-75
2022/10/20 01:28:32;;;;;;;5.15;2.22;;;8.00;99.90;;;;;;5040835;28;20039;-76
2022/10/20 01:31:02;;;;;;;5.32;2.40;;;8.00;99.90;;;;;;5027906;28;20100;-75
2022/10/20 01:33:44;;;;;;;8.68;2.50;;;8.00;99.90;;;;;;5061927;28;20044;-76
2022/10/20 01:36:33;;;;;;;8.07;2.55;;;8.00;99.90;;;;;;5054776;28;20048;-75
2022/10/20 01:39:28;;;;;;;6.47;2.33;;;8.00;99.90;;;;;;5056977;28;20040;-75
2022/10/20 01:42:07;;;;;;;4.57;2.60;;;8.00;99.90;;;;;;5066245;28;20111;-75
2022/10/20 01:44:35;;;;;;;3.25;2.05;;;7.90;99.90;;;;;;5057872;28;21467;-75
2022/10/20 01:47:03;;;;;;;5.32;2.47;;;8.00;99.90;;;;;;5064327;28;20028;-75
2022/10/20 01:49:29;;;;;;;3.55;1.88;;;8.00;99.90;;;;;;5045628;28;20182;-76
2022/10/20 01:51:56;;;;;;;6.57;2.23;;;7.90;99.90;;;;;;5068341;28;20128;-75
2022/10/20 01:54:22;;;;;;;;;;;7.90;99.90;;;;;;5059724;28;20032;-75
2022/10/20 01:57:11;;;;;;;6.35;2.60;;;7.90;99.90;;;;;;5045789;28;19959;-75
2022/10/20 01:59:47;;;;;;;4.90;2.65;;;7.90;99.90;;;;;;5022741;28;20048;-75
2022/10/20 02:02:21;;;;;;;5.07;2.08;;;7.80;99.90;;;;;;5042113;28;20331;-75
2022/10/20 02:05:12;;;;;;;6.82;2.63;;;7.80;99.90;;;;;;5066357;28;20040;-75
2022/10/20 02:07:40;;;;;;;5.60;2.38;;;7.80;99.90;;;;;;5047940;28;20033;-76
2022/10/20 02:10:21;;;;;;;4.38;2.28;;;7.80;99.90;;;;;;5050556;28;20082;-75
2022/10/20 02:12:52;;;;;;;6.63;2.38;;;7.80;99.90;;;;;;5047315;28;20533;-75
2022/10/20 02:15:24;;;;;;;7.78;3.03;;;7.80;99.90;;;;;;5042829;28;20082;-75
2022/10/20 02:18:02;;;;;;;4.32;2.30;;;7.80;99.90;;;;;;5057098;28;20052;-75
2022/10/20 02:20:31;;;;;;;6.80;2.08;;;7.80;99.90;;;;;;5065959;28;20516;-75
2022/10/20 02:22:59;;;;;;;4.35;2.28;;;7.70;99.90;;;;;;5033778;28;20039;-76
2022/10/20 02:25:27;;;;;;;4.93;2.30;;;7.70;99.90;;;;;;5070108;28;20075;-75
2022/10/20 02:27:54;;;;;;;7.32;2.58;;;7.70;99.90;;;;;;5049091;28;20441;-76
2022/10/20 02:30:20;;;;;;;6.47;2.78;;;7.60;99.90;;;;;;5037142;28;20055;-76
2022/10/20 02:32:51;;;;;;;5.67;2.77;;;7.60;99.90;;;;;;5061493;28;20050;-76
2022/10/20 02:35:20;;;;;;;3.70;2.40;;;7.60;99.90;;;;;;5045144;28;20674;-75
2022/10/20 02:37:46;;;;;;;5.38;2.65;;;7.60;99.90;;;;;;5042984;28;20036;-75
2022/10/20 02:40:12;;;;;;;7.65;2.90;;;7.60;99.90;;;;;;5064818;28;20040;-75
2022/10/20 02:42:39;;;;;;;4.88;2.47;;;7.50;99.90;;;;;;5093152;22;20669;-76
2022/10/20 02:45:06;;;;;;;4.47;2.53;;;7.50;99.90;;;;;;5111344;27;20471;-75
2022/10/20 02:47:32;;;;;;;5.63;2.63;;;7.50;99.90;;;;;;5106808;27;20078;-75
2022/10/20 02:49:58;;;;;;;6.60;2.67;;;7.50;99.90;;;;;;5101896;27;20031;-75
2022/10/20 02:52:24;;;;;;;6.78;2.70;;;7.50;99.90;;;;;;5105806;27;20031;-76
2022/10/20 02:54:50;;;;;;;5.07;3.00;;;7.50;99.90;;;;;;5105261;27;20180;-76
2022/10/20 02:57:16;;;;;;;7.75;3.30;;;7.50;99.90;;;;;;5088168;28;20103;-75
2022/10/20 02:59:44;;;;;;;5.05;2.35;;;7.50;99.90;;;;;;5104038;27;20043;-76
2022/10/20 03:02:10;;;;;;;8.13;2.65;;;7.40;99.90;;;;;;5107085;27;20050;-76
2022/10/20 03:04:35;;;;;;;7.40;2.73;;;7.40;99.90;;;;;;5113695;27;20039;-76
2022/10/20 03:07:01;;;;;;;4.80;2.80;;;7.40;99.90;;;;;;5101034;27;20039;-77
2022/10/20 03:09:27;;;;;;;3.83;2.47;;;7.40;99.90;;;;;;5107053;27;20088;-77
2022/10/20 03:11:53;;;;;;;5.37;2.73;;;7.40;99.90;;;;;;5115013;27;20202;-76
2022/10/20 03:14:18;;;;;;;5.27;2.77;;;7.40;99.90;;;;;;5110959;27;20290;-76
2022/10/20 03:16:46;;;;;;;6.37;2.67;;;7.40;99.90;;;;;;5098971;27;20034;-76
2022/10/20 03:19:12;;;;;;;6.28;2.63;;;7.40;99.90;;;;;;5107042;27;20042;-77
2022/10/20 03:21:38;;;;;;;5.17;2.67;;;7.40;99.90;;;;;;5116579;27;20045;-75
2022/10/20 03:24:04;;;;;;;10.43;3.20;;;7.40;99.90;;;;;;5112214;27;20444;-76
2022/10/20 03:26:29;;;;;;;6.13;2.38;;;7.40;99.90;;;;;;5091726;27;20701;-78
2022/10/20 03:28:55;;;;;;;4.47;2.73;;;7.40;99.90;;;;;;5102093;27;20047;-76
2022/10/20 03:31:21;;;;;;;7.73;2.50;;;7.40;99.90;;;;;;5102250;27;20088;-76
2022/10/20 03:33:46;;;;;;;7.00;2.57;;;7.40;99.90;;;;;;5113963;27;20130;-76
2022/10/20 03:36:12;;;;;;;5.40;2.97;;;7.30;99.90;;;;;;5102596;27;20031;-75
2022/10/20 03:38:41;;;;;;;5.90;2.20;;;7.40;99.90;;;;;;5106157;27;20082;-76
2022/10/20 03:41:07;;;;;;;4.57;2.50;;;7.40;99.90;;;;;;5104673;27;20047;-75
2022/10/20 03:43:33;;;;;;;5.22;2.55;;;7.40;99.90;;;;;;5104264;27;20124;-76
2022/10/20 03:46:08;;;;;;;8.97;2.30;;;7.40;99.90;;;;;;5095821;27;20051;-76
2022/10/20 03:48:34;;;;;;;6.32;3.20;;;7.40;99.90;;;;;;5113982;27;20337;-76
2022/10/20 03:51:01;;;;;;;4.70;2.80;;;7.30;99.90;;;;;;5104351;27;20055;-76
2022/10/20 03:53:26;;;;;;;;;;;7.30;99.90;;;;;;5097104;28;20104;-77
2022/10/20 03:55:52;;;;;;;5.78;2.50;;;7.30;99.90;;;;;;5102297;27;19919;-77
2022/10/20 03:58:18;;;;;;;5.50;3.30;;;7.30;99.90;;;;;;5103792;27;20199;-75
2022/10/20 04:00:44;;;;;;;5.67;2.67;;;7.30;99.90;;;;;;5107372;27;20039;-76
2022/10/20 04:03:10;;;;;;;4.43;2.80;;;7.30;99.90;;;;;;5115663;27;20046;-76
2022/10/20 04:05:35;;;;;;;7.33;3.17;;;7.30;99.90;;;;;;5085878;28;20401;-76
2022/10/20 04:08:03;;;;;;;4.50;2.40;;;7.30;99.90;;;;;;5114986;27;20528;-76
2022/10/20 04:10:28;;;;;;;7.60;3.25;;;7.30;99.90;;;;;;5089316;28;20312;-77
2022/10/20 04:12:57;;;;;;;8.17;3.30;;;7.30;99.90;;;;;;5106434;27;20031;-76
2022/10/20 04:15:22;;;;;;;8.35;3.05;;;7.30;99.90;;;;;;5102961;27;20044;-76
2022/10/20 04:17:48;;;;;;;7.37;3.03;;;7.30;99.90;;;;;;5117197;27;20131;-76
2022/10/20 04:20:14;;;;;;;5.13;2.77;;;7.30;99.90;;;;;;5102780;27;20050;-78
2022/10/20 04:22:39;;;;;;;4.90;2.67;;;7.30;99.90;;;;;;5105003;27;20043;-76
2022/10/20 04:25:06;;;;;;;8.77;2.87;;;7.30;99.90;;;;;;5100987;27;20104;-75
2022/10/20 04:27:31;;;;;;;7.07;2.90;;;7.30;99.90;;;;;;5110117;27;20450;-76
2022/10/20 04:29:57;;;;;;;9.03;3.13;;;7.30;99.90;;;;;;5112815;27;20046;-76
2022/10/20 04:32:23;;;;;;;4.37;2.90;;;7.30;99.90;;;;;;5107841;27;20193;-77
2022/10/20 04:34:48;;;;;;;6.33;3.30;;;7.30;99.90;;;;;;5101627;28;20079;-76
2022/10/20 04:37:14;;;;;;;8.50;2.97;;;7.20;99.90;;;;;;5093356;28;20516;-76
2022/10/20 04:39:40;;;;;;;4.93;3.05;;;7.30;99.90;;;;;;5100121;28;20125;-76
2022/10/20 04:42:06;;;;;;;6.10;3.47;;;7.30;99.90;;;;;;5111519;27;20049;-76
2022/10/20 04:44:31;;;;;;;5.87;3.33;;;7.20;99.90;;;;;;5102599;28;20035;-77
2022/10/20 04:46:57;;;;;;;7.27;3.20;;;7.30;99.90;;;;;;5096262;28;20467;-76
2022/10/20 04:49:23;;;;;;;6.00;3.37;;;7.20;99.90;;;;;;5111274;28;20241;-75
2022/10/20 04:51:48;;;;;;;11.60;3.90;;;7.30;99.90;;;;;;5106749;28;20058;-76
2022/10/20 04:54:14;;;;;;;6.20;3.63;;;7.20;99.90;;;;;;5098134;28;20031;-77
2022/10/20 04:56:40;;;;;;;7.63;3.27;;;7.30;99.90;;;;;;5095511;28;20114;-77
2022/10/20 04:59:05;;;;;;;7.10;3.77;;;7.20;99.90;;;;;;5108222;28;20380;-75
2022/10/20 05:01:31;;;;;;;5.40;2.77;;;7.20;99.90;;;;;;5102917;28;20040;-75
2022/10/20 05:03:57;;;;;;;7.87;3.67;;;7.20;99.90;;;;;;5091211;28;20507;-76
2022/10/20 05:06:28;;;;;;;7.20;3.85;;;7.20;99.90;;;;;;5091905;28;20059;-75
2022/10/20 05:09:00;;;;;;;7.10;3.75;;;7.20;99.90;;;;;;5085092;28;20035;-76
2022/10/20 05:11:28;;;;;;;6.95;3.95;;;7.20;99.90;;;;;;5103154;28;20043;-75
2022/10/20 05:13:54;;;;;;;7.85;3.50;;;7.20;99.90;;;;;;5111049;27;20119;-74
2022/10/20 05:16:21;;;;;;;10.75;3.92;;;7.30;99.90;;;;;;5099026;27;20100;-75
2022/10/20 05:18:47;;;;;;;6.22;3.80;;;7.20;99.90;;;;;;5109327;28;20047;-75
2022/10/20 05:21:18;;;;;;;6.22;3.45;;;7.20;99.90;;;;;;5108301;27;20067;-75
2022/10/20 05:23:45;;;;;;;9.35;3.67;;;7.20;99.90;;;;;;5100821;28;21471;-78
2022/10/20 05:26:13;;;;;;;7.03;3.83;;;7.30;99.90;;;;;;5107020;27;20031;-78
2022/10/20 05:28:43;;;;;;;7.85;3.70;;;7.30;99.90;;;;;;5115105;27;20043;-75
2022/10/20 05:31:08;;;;;;;7.18;4.07;;;7.30;99.90;;;;;;5107445;27;20048;-76
2022/10/20 05:33:35;;;;;;;10.47;4.43;;;7.20;99.90;;;;;;5111536;27;20079;-75
2022/10/20 05:36:07;;;;;;;6.70;3.85;;;7.30;99.90;;;;;;5113586;27;20039;-78
2022/10/20 05:38:34;;;;;;;11.63;4.20;;;7.30;99.90;;;;;;5105927;27;20438;-76
2022/10/20 05:41:07;;;;;;;9.05;4.45;;;7.30;99.90;;;;;;5096258;27;20052;-77
2022/10/20 05:43:32;;;;;;;9.68;4.10;;;7.30;99.90;;;;;;5108500;27;20039;-78
2022/10/20 05:45:58;;;;;;;9.03;4.17;;;7.30;99.90;;;;;;5113756;27;20598;-75
2022/10/20 05:48:23;;;;;;;9.93;4.87;;;7.30;99.90;;;;;;5112088;27;20058;-76
2022/10/20 05:50:49;;;;;;;11.73;4.50;;;7.30;99.90;;;;;;5089379;28;20069;-76
2022/10/20 05:53:15;;;;;;;7.33;4.33;;;7.20;99.90;;;;;;5111975;27;20058;-76
2022/10/20 05:55:40;;;;;;;9.13;4.97;;;7.30;99.90;;;;;;5104075;27;20047;-75
2022/10/20 05:58:06;;;;;;;9.07;5.13;;;7.30;99.90;;;;;;5113629;27;20385;-75
2022/10/20 06:00:40;;;;;;;10.23;5.07;;;7.30;99.90;;;;;;5102946;27;20040;-77
2022/10/20 06:03:06;;;;;;;9.30;4.47;;;7.30;99.90;;;;;;5107971;27;20051;-76
2022/10/20 06:05:32;;;;;;;8.00;4.63;;;7.30;99.90;;;;;;5106045;27;20565;-78
2022/10/20 06:07:57;;;;;;;9.23;5.00;;;7.30;99.90;;;;;;5113555;27;20126;-77
2022/10/20 06:10:23;;;;;;;11.60;5.63;;;7.30;99.90;;;;;;5107148;27;20039;-75
2022/10/20 06:12:49;;;;;;;9.47;4.83;;;7.30;99.90;;;;;;5101864;27;20047;-77
2022/10/20 06:15:15;;;;;;;10.67;5.00;;;7.30;99.90;;;;;;5111383;27;20784;-75
2022/10/20 06:17:40;;;;;;;9.18;5.07;;;7.30;99.90;;;;;;5121703;27;20071;-77
2022/10/20 06:20:06;;;;;;;10.20;4.77;;;7.30;99.90;;;;;;5113823;27;20083;-75
2022/10/20 06:22:32;;;;;;;10.25;5.07;;;7.30;99.90;;;;;;5107913;27;20207;-75
2022/10/20 06:24:57;;;;;;;8.23;4.77;;;7.30;99.90;;;;;;5098609;27;20043;-75
2022/10/20 06:27:23;;;;;;;8.27;5.17;;;7.30;99.90;;;;;;5103998;27;20396;-75
2022/10/20 06:29:48;;;;;;;9.80;5.83;;;7.30;99.90;;;;;;5112929;27;20060;-75
2022/10/20 06:32:17;;;;;;;7.53;4.73;;;7.30;99.90;;;;;;5101943;27;20078;-75
2022/10/20 06:34:43;;;;;;;10.35;5.53;;;7.30;99.90;;;;;;5111955;27;20098;-75
2022/10/20 06:37:09;;;;;;;10.13;4.93;;;7.30;99.90;;;;;;5107511;27;20035;-79
2022/10/20 06:39:35;;;;;;;9.70;5.22;;;7.30;99.90;;;;;;5085432;28;20058;-75
2022/10/20 06:42:01;;;;;;;12.63;5.97;;;7.40;99.90;;;;;;5107556;27;20484;-75
2022/10/20 06:44:27;;;;;;;11.27;6.85;;;7.40;99.90;;;;;;5104849;27;20039;-74
2022/10/20 06:46:53;;;;;;;8.63;5.47;;;7.40;99.90;;;;;;5098740;27;20042;-75
2022/10/20 06:49:19;;;;;;;10.23;5.82;;;7.40;99.90;;;;;;5107271;27;20391;-75
2022/10/20 06:51:45;;;;;;;9.45;5.70;;;7.40;99.90;;;;;;5107387;27;20075;-74
2022/10/20 06:54:11;;;;;;;8.77;5.27;;;7.50;99.90;;;;;;5104390;27;20097;-74
2022/10/20 06:56:38;;;;;;;9.07;4.90;;;7.50;99.90;;;;;;5109735;27;20069;-76
2022/10/20 06:59:05;;;;;;;11.27;6.00;;;7.50;99.90;;;;;;5109203;27;20205;-74
2022/10/20 07:01:33;;;;;;;16.23;6.60;;;7.50;99.90;;;;;;5107558;27;20122;-75
2022/10/20 07:04:01;;;;;;;11.52;5.20;;;7.60;99.90;;;;;;5108671;27;20039;-75
2022/10/20 07:06:32;;;;;;;8.90;5.30;;;7.60;99.90;;;;;;5107343;27;20063;-75
2022/10/20 07:08:59;;;;;;;10.45;5.82;;;7.60;99.90;;;;;;5109950;27;20043;-75
2022/10/20 07:11:28;;;;;;;11.82;6.63;;;7.60;99.90;;;;;;5112754;27;20039;-75
2022/10/20 07:13:54;;;;;;;9.95;6.13;;;7.60;99.90;;;;;;5114628;27;20104;-75
2022/10/20 07:16:22;;;;;;;11.50;6.22;;;7.70;99.90;;;;;;5106744;27;20036;-75
2022/10/20 07:18:49;;;;;;;10.70;5.50;;;7.70;99.90;;;;;;5105137;27;22341;-75
2022/10/20 07:21:17;;;;;;;10.65;5.28;;;7.70;99.90;;;;;;5103231;27;20561;-75
2022/10/20 07:23:44;;;;;;;9.38;5.25;;;7.70;99.90;;;;;;5102827;28;20294;-75
2022/10/20 07:26:17;;;;;;;10.82;5.88;;;7.80;99.90;;;;;;5106380;28;20377;-74
2022/10/20 07:28:44;;;;;;;9.30;5.18;;;7.80;99.90;;;;;;5105153;27;20041;-75
2022/10/20 07:31:13;;;;;;;9.50;6.15;;;7.80;99.90;;;;;;5111349;27;20039;-74
2022/10/20 07:33:40;;;;;;;10.30;5.47;;;7.80;99.90;;;;;;5098760;27;20192;-74
2022/10/20 07:36:14;;;;;;;11.35;6.05;;;7.80;99.90;;;;;;5117806;27;20031;-73
2022/10/20 07:38:40;;;;;;;14.50;5.63;;;7.90;99.90;;;;;;5107697;27;20417;-73
2022/10/20 07:41:07;;;;;;;10.98;6.45;;;7.90;99.90;;;;;;5107931;28;20084;-73
2022/10/20 07:43:34;;;;;;;11.02;6.32;;;7.90;99.90;;;;;;5113368;27;20083;-73
2022/10/20 07:46:00;;;;;;;9.15;5.60;;;8.00;99.90;;;;;;5116354;27;20032;-73
2022/10/20 07:48:25;;;;;;;13.60;6.07;;;7.90;99.90;;;;;;5107705;28;20453;-73
2022/10/20 07:50:51;;;;;;;10.07;6.07;;;8.10;99.90;;;;;;5116200;27;20492;-73
2022/10/20 07:53:17;;;;;;;9.90;5.90;;;8.10;99.90;;;;;;5122242;27;20516;-73
2022/10/20 07:55:42;;;;;;;9.43;5.97;;;8.10;99.90;;;;;;5108507;27;20110;-74
2022/10/20 07:58:08;;;;;;;11.97;5.53;;;8.20;99.90;;;;;;5106977;28;20497;-73
2022/10/20 08:00:34;;;;;;;8.93;5.07;;;8.20;99.90;;;;;;5088940;27;20161;-75
2022/10/20 08:02:59;;;;;;;9.60;5.90;;;8.30;99.90;;;;;;5099923;27;20094;-75
2022/10/20 08:05:26;;;;;;;13.47;5.93;;;8.30;99.90;;;;;;5088829;27;20042;-74
2022/10/20 08:07:51;;;;;;;11.88;6.25;;;8.30;99.90;;;;;;5100283;28;20485;-74
2022/10/20 08:10:17;;;;;;;12.03;5.37;;;8.40;99.90;;;;;;5095887;28;20047;-71
2022/10/20 08:12:43;;;;;;;9.50;5.07;;;8.40;99.90;;;;;;5106192;28;20094;-71
2022/10/20 08:15:08;;;;;;;12.77;5.33;;;8.50;99.90;;;;;;5105751;28;20309;-72
2022/10/20 08:17:38;;;;;;;12.32;6.30;;;8.50;99.90;;;;;;5105867;28;20477;-72
2022/10/20 08:20:04;;;;;;;10.88;5.70;;;8.60;99.90;;;;;;5115804;27;20393;-73
2022/10/20 08:22:30;;;;;;;10.00;5.60;;;8.60;99.90;;;;;;5106106;28;20048;-71
2022/10/20 08:24:56;;;;;;;10.60;5.60;;;8.60;99.90;;;;;;5105167;28;20040;-72
2022/10/20 08:27:21;;;;;;;9.00;5.53;;;8.80;99.90;;;;;;5105658;28;20169;-72
2022/10/20 08:29:47;;;;;;;9.60;5.70;;;8.70;99.90;;;;;;5108434;27;20050;-71
2022/10/20 08:32:13;;;;;;;11.90;6.00;;;8.80;99.90;;;;;;5122702;27;20055;-73
2022/10/20 08:34:39;;;;;;;9.70;5.73;;;8.90;99.90;;;;;;5112131;27;20668;-71
2022/10/20 08:37:05;;;;;;;10.13;5.57;;;8.90;99.90;;;;;;5105352;28;20341;-71
2022/10/20 08:39:31;;;;;;;12.90;6.28;;;8.90;99.90;;;;;;5105581;28;20459;-71
2022/10/20 08:41:57;;;;;;;9.83;5.40;;;9.00;99.90;;;;;;5112373;22;20435;-72
2022/10/20 08:44:30;;;;;;;9.00;5.40;;;9.00;99.90;;;;;;5035748;28;20048;-72
2022/10/20 08:46:57;;;;;;;7.90;5.18;;;9.10;99.90;;;;;;5043203;28;20437;-72
2022/10/20 08:49:27;;;;;;;11.63;5.95;;;9.20;99.90;;;;;;5058004;28;20044;-72
2022/10/20 08:51:53;;;;;;;10.20;5.72;;;9.30;99.90;;;;;;5011052;28;20091;-72
2022/10/20 08:54:19;;;;;;;9.18;5.30;;;9.30;99.90;;;;;;5060481;28;20068;-72
2022/10/20 08:56:45;;;;;;;8.60;5.23;;;9.40;99.90;;;;;;5057660;28;20044;-72
2022/10/20 08:59:34;;;;;;;10.95;5.07;;;9.50;99.90;;;;;;5054902;28;20045;-72
2022/10/20 09:02:02;;;;;;;12.07;5.50;;;9.50;99.90;;;;;;5031082;28;20154;-72
2022/10/20 09:04:42;;;;;;;13.65;5.45;;;9.50;99.90;;;;;;5058275;28;20044;-72
2022/10/20 09:07:36;;;;;;;8.50;5.15;;;9.60;99.90;;;;;;5032356;28;20084;-72
2022/10/20 09:10:11;;;;;;;8.15;5.25;;;9.60;99.90;;;;;;5036065;28;20137;-72
2022/10/20 09:12:40;;;;;;;8.15;4.93;;;9.60;99.90;;;;;;5051442;28;20117;-72
2022/10/20 09:15:12;;;;;;;8.25;5.50;;;9.60;99.90;;;;;;5050989;28;20507;-72
2022/10/20 09:17:45;;;;;;;9.73;4.93;;;9.60;99.90;;;;;;5066287;28;20048;-72
2022/10/20 09:20:39;;;;;;;7.97;4.97;;;9.70;99.90;;;;;;5028118;28;20092;-72
2022/10/20 09:23:08;;;;;;;8.82;5.32;;;9.80;99.90;;;;;;5052260;28;20140;-72
2022/10/20 09:25:34;;;;;;;9.57;5.15;;;10.00;99.90;;;;;;5042728;28;20053;-72
2022/10/20 09:28:00;;;;;;;8.38;4.32;;;10.00;99.90;;;;;;5046002;28;20099;-72
2022/10/20 09:30:28;;;;;;;9.00;4.33;;;10.00;99.90;;;;;;5042816;28;20498;-72
2022/10/20 09:32:54;;;;;;;7.43;4.18;;;10.10;99.90;;;;;;5046820;28;20047;-72
2022/10/20 09:35:32;;;;;;;9.87;5.07;;;10.10;99.90;;;;;;5056195;28;20032;-72
2022/10/20 09:38:02;;;;;;;8.93;4.65;;;10.20;99.90;;;;;;5064653;28;20029;-72
2022/10/20 09:40:29;;;;;;;8.32;5.18;;;10.20;99.90;;;;;;5030896;28;20451;-72
2022/10/20 09:43:06;;;;;;;8.75;4.70;;;10.30;99.90;;;;;;5045468;28;20047;-72
2022/10/20 09:45:33;;;;;;;;;;;10.30;99.90;;;;;;5060216;28;20056;-72
2022/10/20 09:48:36;;;;;;;6.90;4.10;;;10.40;99.90;;;;;;5038222;28;19916;-72
2022/10/20 09:51:05;;;;;;;7.80;5.05;;;10.40;99.90;;;;;;5010916;28;20168;-72
2022/10/20 09:53:39;;;;;;;8.48;5.25;;;10.50;99.90;;;;;;5055712;28;20405;-72
2022/10/20 09:56:05;;;;;;;7.22;4.28;;;10.60;99.90;;;;;;5044763;28;20324;-72
2022/10/20 09:58:37;;;;;;;9.27;5.10;;;10.70;99.90;;;;;;5056678;28;20041;-72
2022/10/20 10:01:05;;;;;;;8.73;5.00;;;10.70;99.90;;;;;;5014020;28;20048;-72
2022/10/20 10:03:43;;;;;;;8.93;4.85;;;10.80;99.90;;;;;;5030648;28;20037;-72
2022/10/20 10:06:36;;;;;;;9.32;5.20;;;10.90;99.90;;;;;;5049391;28;20188;-73
2022/10/20 10:09:23;;;;;;;9.00;4.82;;;11.10;99.90;;;;;;5030421;28;20041;-73
2022/10/20 10:12:04;;;;;;;8.73;5.00;;;11.20;99.90;;;;;;5066053;28;20051;-73
2022/10/20 10:14:32;;;;;;;7.43;4.68;;;11.30;99.90;;;;;;5041984;28;20040;-72
2022/10/20 10:16:59;;;;;;;8.95;4.28;;;11.40;99.90;;;;;;5063933;28;20048;-72
2022/10/20 10:19:28;;;;;;;6.68;4.28;;;11.50;99.90;;;;;;5046522;28;20071;-73
2022/10/20 10:21:59;;;;;;;6.57;4.28;;;11.60;99.90;;;;;;5047075;28;20613;-72
2022/10/20 10:24:48;;;;;;;8.10;4.05;;;11.70;99.90;;;;;;5057421;28;20059;-72
2022/10/20 10:27:24;;;;;;;8.52;4.90;;;11.80;99.90;;;;;;5029783;28;20041;-73
2022/10/20 10:29:51;;;;;;;13.80;4.65;;;11.80;99.90;;;;;;5030160;28;20136;-73
2022/10/20 10:32:17;;;;;;;;;;;11.90;99.90;;;;;;5054948;28;20047;-73
2022/10/20 10:35:02;;;;;;;8.90;4.25;;;12.00;99.90;;;;;;5065503;28;19977;-73
2022/10/20 10:37:29;;;;;;;11.77;4.45;;;12.10;99.90;;;;;;5030023;28;20044;-72
2022/10/20 10:39:55;;;;;;;6.75;4.43;;;12.10;99.90;;;;;;5056318;28;20121;-72
2022/10/20 10:42:33;;;;;;;6.63;4.40;;;12.20;99.90;;;;;;5037375;28;20467;-72
2022/10/20 10:45:15;;;;;;;8.95;4.53;;;12.20;99.90;;;;;;5039744;28;20120;-72
2022/10/20 10:48:14;;;;;;;6.00;4.18;;;12.30;99.90;;;;;;5066218;28;20453;-72
2022/10/20 10:50:55;;;;;;;8.18;4.53;;;12.40;99.90;;;;;;5054655;28;20155;-73
2022/10/20 10:53:32;;;;;;;8.88;4.50;;;12.40;99.90;;;;;;5063819;28;20047;-72
2022/10/20 10:56:26;;;;;;;10.68;4.57;;;12.50;99.90;;;;;;5034058;28;20174;-73
2022/10/20 10:59:26;;;;;;;6.97;3.65;;;12.60;99.90;;;;;;5048583;28;20052;-72
2022/10/20 11:02:25;;;;;;;8.45;4.53;;;12.60;99.90;;;;;;5050298;28;20048;-72
2022/10/20 11:05:15;;;;;;;7.45;4.43;;;12.70;99.90;;;;;;5067752;28;20112;-73
2022/10/20 11:08:05;;;;;;;8.45;4.20;;;12.80;99.90;;;;;;5032943;28;20221;-72
2022/10/20 11:10:51;;;;;;;10.27;5.13;;;12.80;99.90;;;;;;5066962;28;20543;-72
2022/10/20 11:13:28;;;;;;;9.07;4.50;;;12.80;99.90;;;;;;5067478;28;20085;-73
2022/10/20 11:16:00;;;;;;;9.05;4.80;;;12.90;99.90;;;;;;5049942;28;20044;-73
2022/10/20 11:18:47;;;;;;;6.80;4.25;;;12.90;99.90;;;;;;5050406;28;20105;-73
2022/10/20 11:21:19;;;;;;;8.43;4.63;;;12.90;99.90;;;;;;5028238;28;20164;-72
2022/10/20 11:24:10;;;;;;;8.35;4.43;;;13.00;99.90;;;;;;5047326;28;20055;-73
2022/10/20 11:26:43;;;;;;;7.93;4.95;;;13.00;99.90;;;;;;5041138;28;20313;-73
2022/10/20 11:29:19;;;;;;;7.70;4.93;;;12.90;99.90;;;;;;5032952;28;20555;-72
2022/10/20 11:31:54;;;;;;;9.77;5.20;;;13.00;99.90;;;;;;5067309;28;20197;-72
2022/10/20 11:34:45;;;;;;;9.15;4.88;;;13.00;99.90;;;;;;5067111;28;20580;-73
2022/10/20 11:37:29;;;;;;;10.35;5.05;;;13.00;99.90;;;;;;5033609;28;20044;-72
2022/10/20 11:40:24;;;;;;;9.20;4.68;;;13.00;99.90;;;;;;5036741;28;20273;-73
2022/10/20 11:43:11;;;;;;;10.32;5.55;;;13.00;99.90;;;;;;5043388;28;20052;-73
2022/10/20 11:45:48;;;;;;;6.40;4.38;;;12.90;99.90;;;;;;5038787;28;20143;-73
2022/10/20 11:48:37;;;;;;;6.43;4.60;;;12.90;99.90;;;;;;5028513;28;20049;-73
2022/10/20 11:51:17;;;;;;;7.80;4.55;;;12.80;99.90;;;;;;5041960;28;20036;-73
2022/10/20 11:53:50;;;;;;;9.95;4.68;;;12.80;99.90;;;;;;5048289;28;20471;-73
2022/10/20 11:56:38;;;;;;;8.23;5.45;;;12.80;99.90;;;;;;5031497;28;20052;-73
2022/10/20 11:59:12;;;;;;;8.10;5.05;;;12.90;99.90;;;;;;5048523;28;20086;-73
2022/10/20 12:02:01;;;;;;;13.75;5.13;;;12.80;99.90;;;;;;5047955;28;20197;-73
2022/10/20 12:04:48;;;;;;;7.13;4.47;;;12.80;99.90;;;;;;5048391;28;20063;-72
2022/10/20 12:07:34;;;;;;;7.57;5.22;;;12.80;99.90;;;;;;5066511;28;20037;-73
2022/10/20 12:09:59;;;;;;;7.53;4.55;;;12.80;99.90;;;;;;5035236;28;20044;-72
2022/10/20 12:12:50;;;;;;;6.50;4.43;;;12.80;99.90;;;;;;5048253;28;20120;-73
2022/10/20 12:15:22;;;;;;;11.55;5.70;;;12.80;99.90;;;;;;5067225;28;20282;-72
2022/10/20 12:17:51;;;;;;;7.10;4.75;;;12.70;99.90;;;;;;5065707;28;20060;-73
2022/10/20 12:20:19;;;;;;;10.95;5.60;;;12.70;99.90;;;;;;5066148;28;20474;-73
2022/10/20 12:22:57;;;;;;;11.73;5.20;;;12.70;99.90;;;;;;5048983;28;20172;-73
2022/10/20 12:25:26;;;;;;;10.35;4.55;;;12.70;99.90;;;;;;5047518;28;20051;-73
2022/10/20 12:28:37;;;;;;;9.25;4.63;;;12.60;99.90;;;;;;5031036;28;20041;-72
2022/10/20 12:31:04;;;;;;;9.20;5.28;;;12.60;99.90;;;;;;5043312;28;20113;-72
2022/10/20 12:33:41;;;;;;;9.00;5.15;;;12.60;99.90;;;;;;5065273;28;20048;-72
2022/10/20 12:36:27;;;;;;;8.50;5.07;;;12.60;99.90;;;;;;5048204;28;20405;-73
2022/10/20 12:39:10;;;;;;;9.27;4.97;;;12.50;99.90;;;;;;5047235;28;20051;-72
2022/10/20 12:41:59;;;;;;;9.85;5.75;;;12.50;99.90;;;;;;5049394;28;20049;-73
2022/10/20 12:44:29;;;;;;;9.35;5.55;;;12.40;99.90;;;;;;5030695;28;20040;-72
2022/10/20 12:47:07;;;;;;;11.75;5.88;;;12.40;99.90;;;;;;5051672;28;20102;-72
2022/10/20 12:49:36;;;;;;;10.65;6.72;;;12.40;99.90;;;;;;5042855;28;20041;-73
2022/10/20 12:52:04;;;;;;;11.23;5.85;;;12.30;99.90;;;;;;5050241;28;20163;-73
2022/10/20 12:54:30;;;;;;;14.75;7.10;;;12.30;99.90;;;;;;5040306;28;20052;-73
2022/10/20 12:57:00;;;;;;;11.83;6.77;;;12.30;99.90;;;;;;5029515;28;20406;-73
2022/10/20 12:59:28;;;;;;;15.95;6.90;;;12.30;99.90;;;;;;5058468;28;20536;-73
2022/10/20 13:02:09;;;;;;;12.30;7.22;;;12.30;99.90;;;;;;5056696;28;20041;-73
2022/10/20 13:05:00;;;;;;;9.85;5.95;;;12.30;99.90;;;;;;5065824;28;20557;-73
2022/10/20 13:07:44;;;;;;;11.30;6.75;;;12.30;99.90;;;;;;5037598;28;20040;-73
2022/10/20 13:10:31;;;;;;;11.85;6.90;;;12.30;99.90;;;;;;5053724;28;20058;-73
2022/10/20 13:13:02;;;;;;;9.83;6.67;;;12.30;99.90;;;;;;5043349;28;20438;-73
2022/10/20 13:15:31;;;;;;;11.60;6.25;;;12.20;99.90;;;;;;5039062;28;20073;-72